Time;durP1;ratioP1;P1;durP2;ratioP2;P2;SDS_P1;SDS_P2;PMS_P1;PMS_P2;Temp;Humidity;BMP_temperature;BMP_pressure;BME280_temperature;BME280_humidity;BME280_pressure;Samples;Min_cycle;Max_cycle;Signal;HPM_P1;HPM_P2
2022/08/30 00:01:05;;;;;;;;;;;;;;;;;;349933;28;929;-64
2022/08/30 00:01:23;;;;;;;;;;;;;;;;;;349909;28;814;-64
2022/08/30 00:01:33;;;;;;;;;;;;;;;;;;350015;28;889;-64
2022/08/30 00:01:43;;;;;;;;;;;;;;;;;;349968;28;877;-64
2022/08/30 00:01:53;;;;;;;;;;;;;;;;;;349946;28;917;-64
2022/08/30 00:02:04;;;;;;;;;;;;;;;;;;349923;28;968;-63
2022/08/30 00:02:14;;;;;;;;;;;;;;;;;;349882;28;917;-64
2022/08/30 00:02:24;;;;;;;;;;;;;;;;;;349932;28;809;-63
2022/08/30 00:02:34;;;;;;;;;;;;;;;;;;349979;28;794;-64
2022/08/30 00:02:45;;;;;;;;;;;;;;;;;;349932;28;972;-63
2022/08/30 00:02:55;;;;;;;;;;;;;;;;;;349945;28;972;-64
2022/08/30 00:03:06;;;;;;;;;;;;;;;;;;349898;28;1008;-64
2022/08/30 00:03:17;;;;;;;;;;;;;;;;;;349984;28;861;-64
2022/08/30 00:03:27;;;;;;;;;;;;;;;;;;349920;28;905;-64
2022/08/30 00:03:45;;;;;;;;;;;;;;;;;;349917;28;921;-64
2022/08/30 00:03:57;;;;;;;;;;;;;;;;;;349973;28;762;-64
2022/08/30 00:04:07;;;;;;;;;;;;;;;;;;349921;28;976;-63
2022/08/30 00:04:17;;;;;;;;;;;;;;;;;;349983;28;944;-63
2022/08/30 00:04:28;;;;;;;;;;;;;;;;;;349971;28;968;-63
2022/08/30 00:04:38;;;;;;;;;;;;;;;;;;349940;28;893;-64
2022/08/30 00:04:48;;;;;;;;;;;;;;;;;;349943;28;913;-64
2022/08/30 00:05:00;;;;;;;;;;;;;;;;;;349971;28;849;-63
2022/08/30 00:05:12;;;;;;;;;;;;;;;;;;349837;28;1029;-63
2022/08/30 00:05:22;;;;;;;;;;;;;;;;;;349948;28;810;-63
2022/08/30 00:05:33;;;;;;;;;;;;;;;;;;349923;28;956;-63
2022/08/30 00:05:44;;;;;;;;;;;;;;;;;;349865;28;1020;-64
2022/08/30 00:05:54;;;;;;;;;;;;;;;;;;349960;28;770;-63
2022/08/30 00:06:08;;;;;;;;;;;;;;;;;;349984;28;940;-63
2022/08/30 00:06:18;;;;;;;;;;;;;;;;;;349895;28;991;-63
2022/08/30 00:06:28;;;;;;;;;;;;;;;;;;349969;28;920;-64
2022/08/30 00:06:39;;;;;;;;;;;;;;;;;;349983;28;952;-64
2022/08/30 00:06:49;;;;;;;;;;;;;;;;;;349914;28;805;-64
2022/08/30 00:07:02;;;;;;;;;;;;;;;;;;349937;28;920;-63
2022/08/30 00:07:12;;;;;;;;;;;;;;;;;;349926;28;999;-64
2022/08/30 00:07:23;;;;;;;;;;;;;;;;;;349543;28;1446;-64
2022/08/30 00:07:34;;;;;;;;;;;;;;;;;;349959;28;1460;-63
2022/08/30 00:07:44;;;;;;;;;;;;;;;;;;351303;28;975;-63
2022/08/30 00:07:54;;;;;;;;;;;;;;;;;;351247;28;1055;-64
2022/08/30 00:08:04;;;;;;;;;;;;;;;;;;351356;28;853;-63
2022/08/30 00:08:14;;;;;;;;;;;;;;;;;;351281;28;1564;-63
2022/08/30 00:08:25;;;;;;;;;;;;;;;;;;351344;28;936;-63
2022/08/30 00:08:35;;;;;;;;;;;;;;;;;;351267;28;1007;-63
2022/08/30 00:08:47;;;;;;;;;;;;;;;;;;350319;28;1314;-64
2022/08/30 00:08:58;;;;;;;;;;;;;;;;;;349938;28;1003;-64
2022/08/30 00:09:09;;;;;;;;;;;;;;;;;;349875;28;957;-64
2022/08/30 00:09:19;;;;;;;;;;;;;;;;;;349919;28;956;-64
2022/08/30 00:09:30;;;;;;;;;;;;;;;;;;349526;28;1347;-63
2022/08/30 00:09:40;;;;;;;;;;;;;;;;;;350412;28;1525;-64
2022/08/30 00:09:50;;;;;;;;;;;;;;;;;;351292;28;941;-63
2022/08/30 00:10:01;;;;;;;;;;;;;;;;;;351333;28;936;-63
2022/08/30 00:10:12;;;;;;;;;;;;;;;;;;351328;28;925;-63
2022/08/30 00:10:22;;;;;;;;;;;;;;;;;;351322;28;967;-63
2022/08/30 00:10:32;;;;;;;;;;;;;;;;;;351325;28;778;-64
2022/08/30 00:10:43;;;;;;;;;;;;;;;;;;351320;28;1059;-63
2022/08/30 00:10:54;;;;;;;;;;;;;;;;;;351340;28;908;-64
2022/08/30 00:11:05;;;;;;;;;;;;;;;;;;351330;28;809;-63
2022/08/30 00:11:17;;;;;;;;;;;;;;;;;;351286;28;1215;-64
2022/08/30 00:11:27;;;;;;;;;;;;;;;;;;351302;28;995;-63
2022/08/30 00:11:38;;;;;;;;;;;;;;;;;;351294;28;936;-63
2022/08/30 00:11:50;;;;;;;;;;;;;;;;;;351248;28;1139;-64
2022/08/30 00:12:03;;;;;;;;;;;;;;;;;;351369;28;932;-63
2022/08/30 00:12:13;;;;;;;;;;;;;;;;;;351380;28;877;-63
2022/08/30 00:12:23;;;;;;;;;;;;;;;;;;351250;28;917;-64
2022/08/30 00:12:34;;;;;;;;;;;;;;;;;;351301;28;1003;-63
2022/08/30 00:12:45;;;;;;;;;;;;;;;;;;351359;28;829;-63
2022/08/30 00:12:55;;;;;;;;;;;;;;;;;;351330;28;905;-64
2022/08/30 00:13:06;;;;;;;;;;;;;;;;;;351300;28;916;-64
2022/08/30 00:13:18;;;;;;;;;;;;;;;;;;351375;28;909;-63
2022/08/30 00:13:28;;;;;;;;;;;;;;;;;;351327;28;979;-63
2022/08/30 00:13:40;;;;;;;;;;;;;;;;;;351328;28;968;-63
2022/08/30 00:13:51;;;;;;;;;;;;;;;;;;351301;28;865;-63
2022/08/30 00:14:01;;;;;;;;;;;;;;;;;;351290;28;944;-64
2022/08/30 00:14:11;;;;;;;;;;;;;;;;;;351288;28;1027;-64
2022/08/30 00:14:22;;;;;;;;;;;;;;;;;;351325;28;979;-63
2022/08/30 00:14:32;;;;;;;;;;;;;;;;;;351305;28;983;-64
2022/08/30 00:14:42;;;;;;;;;;;;;;;;;;351368;28;845;-63
2022/08/30 00:14:53;;;;;;;;;;;;;;;;;;351294;28;968;-64
2022/08/30 00:15:03;;;;;;;;;;;;;;;;;;351347;28;1011;-63
2022/08/30 00:15:14;;;;;;;;;;;;;;;;;;351357;28;991;-63
2022/08/30 00:15:25;;;;;;;;;;;;;;;;;;351316;28;928;-63
2022/08/30 00:15:35;;;;;;;;;;;;;;;;;;351310;28;924;-63
2022/08/30 00:15:47;;;;;;;;;;;;;;;;;;351262;28;982;-64
2022/08/30 00:15:57;;;;;;;;;;;;;;;;;;351274;28;983;-63
2022/08/30 00:16:07;;;;;;;;;;;;;;;;;;351327;28;952;-64
2022/08/30 00:16:19;;;;;;;;;;;;;;;;;;351320;28;862;-63
2022/08/30 00:16:29;;;;;;;;;;;;;;;;;;351312;28;952;-63
2022/08/30 00:16:39;;;;;;;;;;;;;;;;;;351275;28;952;-64
2022/08/30 00:16:49;;;;;;;;;;;;;;;;;;351347;28;821;-63
2022/08/30 00:16:59;;;;;;;;;;;;;;;;;;351345;28;792;-63
2022/08/30 00:17:10;;;;;;;;;;;;;;;;;;351304;28;916;-63
2022/08/30 00:17:20;;;;;;;;;;;;;;;;;;351319;28;905;-64
2022/08/30 00:17:30;;;;;;;;;;;;;;;;;;351272;28;916;-64
2022/08/30 00:17:42;;;;;;;;;;;;;;;;;;351352;28;849;-64
2022/08/30 00:17:53;;;;;;;;;;;;;;;;;;351359;28;864;-63
2022/08/30 00:18:03;;;;;;;;;;;;;;;;;;351310;28;967;-64
2022/08/30 00:18:14;;;;;;;;;;;;;;;;;;351350;28;1031;-64
2022/08/30 00:18:25;;;;;;;;;;;;;;;;;;351263;28;917;-64
2022/08/30 00:18:35;;;;;;;;;;;;;;;;;;351139;28;1910;-63
2022/08/30 00:18:45;;;;;;;;;;;;;;;;;;351367;28;960;-63
2022/08/30 00:18:55;;;;;;;;;;;;;;;;;;351302;28;1019;-63
2022/08/30 00:19:06;;;;;;;;;;;;;;;;;;351383;28;865;-63
2022/08/30 00:19:16;;;;;;;;;;;;;;;;;;351329;28;948;-63
2022/08/30 00:19:26;;;;;;;;;;;;;;;;;;351339;28;834;-63
2022/08/30 00:19:37;;;;;;;;;;;;;;;;;;350173;28;1794;-64
2022/08/30 00:19:47;;;;;;;;;;;;;;;;;;349932;28;992;-63
2022/08/30 00:19:57;;;;;;;;;;;;;;;;;;349943;28;929;-63
2022/08/30 00:20:09;;;;;;;;;;;;;;;;;;349847;28;846;-63
2022/08/30 00:20:21;;;;;;;;;;;;;;;;;;349980;28;881;-63
2022/08/30 00:20:32;;;;;;;;;;;;;;;;;;349892;28;1027;-64
2022/08/30 00:20:43;;;;;;;;;;;;;;;;;;349885;28;991;-63
2022/08/30 00:20:54;;;;;;;;;;;;;;;;;;351578;28;1350;-64
2022/08/30 00:21:04;;;;;;;;;;;;;;;;;;352712;28;947;-64
2022/08/30 00:21:15;;;;;;;;;;;;;;;;;;352701;28;1051;-64
2022/08/30 00:21:25;;;;;;;;;;;;;;;;;;352793;28;844;-64
2022/08/30 00:21:38;;;;;;;;;;;;;;;;;;351495;28;1356;-63
2022/08/30 00:21:48;;;;;;;;;;;;;;;;;;349868;28;1062;-63
2022/08/30 00:21:58;;;;;;;;;;;;;;;;;;349935;28;916;-64
2022/08/30 00:22:08;;;;;;;;;;;;;;;;;;349868;28;933;-63
2022/08/30 00:22:19;;;;;;;;;;;;;;;;;;349935;28;990;-63
2022/08/30 00:22:31;;;;;;;;;;;;;;;;;;349936;28;908;-63
2022/08/30 00:22:42;;;;;;;;;;;;;;;;;;349929;28;984;-64
2022/08/30 00:22:52;;;;;;;;;;;;;;;;;;349926;28;936;-64
2022/08/30 00:23:03;;;;;;;;;;;;;;;;;;349930;28;1023;-64
2022/08/30 00:23:13;;;;;;;;;;;;;;;;;;349935;28;936;-64
2022/08/30 00:23:24;;;;;;;;;;;;;;;;;;349942;28;1011;-63
2022/08/30 00:23:35;;;;;;;;;;;;;;;;;;349942;28;865;-63
2022/08/30 00:23:45;;;;;;;;;;;;;;;;;;349901;28;893;-64
2022/08/30 00:23:55;;;;;;;;;;;;;;;;;;349907;28;1007;-63
2022/08/30 00:24:05;;;;;;;;;;;;;;;;;;349920;28;901;-63
2022/08/30 00:24:15;;;;;;;;;;;;;;;;;;349858;28;885;-63
2022/08/30 00:24:26;;;;;;;;;;;;;;;;;;349933;28;829;-64
2022/08/30 00:24:37;;;;;;;;;;;;;;;;;;349503;28;1334;-63
2022/08/30 00:24:48;;;;;;;;;;;;;;;;;;349897;28;868;-64
2022/08/30 00:25:02;;;;;;;;;;;;;;;;;;349897;28;1014;-63
2022/08/30 00:25:13;;;;;;;;;;;;;;;;;;349952;28;1000;-63
2022/08/30 00:25:23;;;;;;;;;;;;;;;;;;349895;28;873;-63
2022/08/30 00:25:33;;;;;;;;;;;;;;;;;;349902;28;1015;-63
2022/08/30 00:25:44;;;;;;;;;;;;;;;;;;349920;28;976;-63
2022/08/30 00:25:54;;;;;;;;;;;;;;;;;;349914;28;1008;-63
2022/08/30 00:26:05;;;;;;;;;;;;;;;;;;349900;28;832;-63
2022/08/30 00:26:15;;;;;;;;;;;;;;;;;;349818;28;980;-64
2022/08/30 00:26:25;;;;;;;;;;;;;;;;;;349911;28;897;-64
2022/08/30 00:26:36;;;;;;;;;;;;;;;;;;349922;28;940;-63
2022/08/30 00:26:46;;;;;;;;;;;;;;;;;;349950;28;1050;-63
2022/08/30 00:26:56;;;;;;;;;;;;;;;;;;349922;28;933;-64
2022/08/30 00:27:06;;;;;;;;;;;;;;;;;;349900;28;789;-64
2022/08/30 00:27:17;;;;;;;;;;;;;;;;;;349935;28;873;-64
2022/08/30 00:27:27;;;;;;;;;;;;;;;;;;349960;28;968;-64
2022/08/30 00:27:38;;;;;;;;;;;;;;;;;;349907;28;889;-64
2022/08/30 00:27:48;;;;;;;;;;;;;;;;;;349943;28;916;-63
2022/08/30 00:27:59;;;;;;;;;;;;;;;;;;349891;28;956;-63
2022/08/30 00:28:10;;;;;;;;;;;;;;;;;;349900;28;933;-63
2022/08/30 00:28:20;;;;;;;;;;;;;;;;;;349917;28;905;-64
2022/08/30 00:28:32;;;;;;;;;;;;;;;;;;349882;28;837;-64
2022/08/30 00:28:42;;;;;;;;;;;;;;;;;;349905;28;909;-64
2022/08/30 00:28:54;;;;;;;;;;;;;;;;;;349901;28;948;-63
2022/08/30 00:29:04;;;;;;;;;;;;;;;;;;349856;28;1011;-64
2022/08/30 00:29:14;;;;;;;;;;;;;;;;;;349943;28;842;-63
2022/08/30 00:29:24;;;;;;;;;;;;;;;;;;349895;28;921;-63
2022/08/30 00:29:34;;;;;;;;;;;;;;;;;;349440;28;1695;-63
2022/08/30 00:29:45;;;;;;;;;;;;;;;;;;350762;28;1348;-64
2022/08/30 00:29:56;;;;;;;;;;;;;;;;;;351413;28;782;-63
2022/08/30 00:30:07;;;;;;;;;;;;;;;;;;351289;28;944;-63
2022/08/30 00:30:18;;;;;;;;;;;;;;;;;;351227;28;991;-64
2022/08/30 00:30:28;;;;;;;;;;;;;;;;;;351316;28;983;-63
2022/08/30 00:30:39;;;;;;;;;;;;;;;;;;351263;28;901;-63
2022/08/30 00:30:49;;;;;;;;;;;;;;;;;;351294;28;865;-64
2022/08/30 00:31:00;;;;;;;;;;;;;;;;;;351304;28;968;-64
2022/08/30 00:31:11;;;;;;;;;;;;;;;;;;351308;28;959;-64
2022/08/30 00:31:21;;;;;;;;;;;;;;;;;;351323;28;980;-64
2022/08/30 00:31:31;;;;;;;;;;;;;;;;;;351324;28;856;-64
2022/08/30 00:31:42;;;;;;;;;;;;;;;;;;351254;28;916;-63
2022/08/30 00:31:52;;;;;;;;;;;;;;;;;;351302;28;908;-63
2022/08/30 00:32:02;;;;;;;;;;;;;;;;;;351295;28;1003;-64
2022/08/30 00:32:13;;;;;;;;;;;;;;;;;;351320;28;979;-63
2022/08/30 00:32:23;;;;;;;;;;;;;;;;;;351258;28;1007;-63
2022/08/30 00:32:33;;;;;;;;;;;;;;;;;;351238;28;917;-64
2022/08/30 00:32:43;;;;;;;;;;;;;;;;;;351272;28;1008;-64
2022/08/30 00:32:54;;;;;;;;;;;;;;;;;;351312;28;996;-64
2022/08/30 00:33:04;;;;;;;;;;;;;;;;;;351295;27;908;-64
2022/08/30 00:33:15;;;;;;;;;;;;;;;;;;351300;28;999;-63
2022/08/30 00:33:25;;;;;;;;;;;;;;;;;;351299;28;978;-63
2022/08/30 00:33:35;;;;;;;;;;;;;;;;;;351249;28;951;-63
2022/08/30 00:33:45;;;;;;;;;;;;;;;;;;351221;28;1300;-63
2022/08/30 00:33:56;;;;;;;;;;;;;;;;;;351343;28;797;-64
2022/08/30 00:34:06;;;;;;;;;;;;;;;;;;351281;28;971;-64
2022/08/30 00:34:17;;;;;;;;;;;;;;;;;;351360;28;808;-64
2022/08/30 00:34:27;;;;;;;;;;;;;;;;;;351348;28;816;-63
2022/08/30 00:34:37;;;;;;;;;;;;;;;;;;351216;28;1011;-64
2022/08/30 00:34:48;;;;;;;;;;;;;;;;;;351321;28;833;-64
2022/08/30 00:34:58;;;;;;;;;;;;;;;;;;351347;28;927;-63
2022/08/30 00:35:10;;;;;;;;;;;;;;;;;;351324;28;869;-64
2022/08/30 00:35:21;;;;;;;;;;;;;;;;;;351308;28;974;-63
2022/08/30 00:35:32;;;;;;;;;;;;;;;;;;351370;28;1744;-63
2022/08/30 00:35:42;;;;;;;;;;;;;;;;;;351307;28;924;-63
2022/08/30 00:35:53;;;;;;;;;;;;;;;;;;351242;28;892;-63
2022/08/30 00:36:04;;;;;;;;;;;;;;;;;;351306;28;916;-64
2022/08/30 00:36:14;;;;;;;;;;;;;;;;;;351293;28;824;-64
2022/08/30 00:36:25;;;;;;;;;;;;;;;;;;351348;28;982;-63
2022/08/30 00:36:36;;;;;;;;;;;;;;;;;;351319;28;916;-63
2022/08/30 00:36:46;;;;;;;;;;;;;;;;;;351187;28;1025;-64
2022/08/30 00:36:57;;;;;;;;;;;;;;;;;;351273;28;754;-63
2022/08/30 00:37:08;;;;;;;;;;;;;;;;;;351338;28;991;-63
2022/08/30 00:37:18;;;;;;;;;;;;;;;;;;351312;28;1013;-63
2022/08/30 00:37:29;;;;;;;;;;;;;;;;;;351357;28;833;-64
2022/08/30 00:37:39;;;;;;;;;;;;;;;;;;351347;28;971;-63
2022/08/30 00:37:49;;;;;;;;;;;;;;;;;;351288;28;916;-64
2022/08/30 00:38:00;;;;;;;;;;;;;;;;;;351300;28;1054;-64
2022/08/30 00:38:11;;;;;;;;;;;;;;;;;;351335;28;892;-63
2022/08/30 00:38:23;;;;;;;;;;;;;;;;;;351321;28;927;-64
2022/08/30 00:38:33;;;;;;;;;;;;;;;;;;351310;28;1969;-63
2022/08/30 00:38:43;;;;;;;;;;;;;;;;;;351282;28;948;-64
2022/08/30 00:38:53;;;;;;;;;;;;;;;;;;351225;28;1031;-64
2022/08/30 00:39:05;;;;;;;;;;;;;;;;;;351359;28;856;-63
2022/08/30 00:39:15;;;;;;;;;;;;;;;;;;351328;28;939;-63
2022/08/30 00:39:25;;;;;;;;;;;;;;;;;;350518;28;1372;-63
2022/08/30 00:39:36;;;;;;;;;;;;;;;;;;349936;28;1577;-64
2022/08/30 00:39:46;;;;;;;;;;;;;;;;;;350366;28;1649;-63
2022/08/30 00:39:57;;;;;;;;;;;;;;;;;;351229;28;1100;-63
2022/08/30 00:40:08;;;;;;;;;;;;;;;;;;351283;28;952;-63
2022/08/30 00:40:19;;;;;;;;;;;;;;;;;;351385;28;916;-64
2022/08/30 00:40:29;;;;;;;;;;;;;;;;;;351274;28;924;-64
2022/08/30 00:40:41;;;;;;;;;;;;;;;;;;351297;28;924;-63
2022/08/30 00:40:51;;;;;;;;;;;;;;;;;;351295;28;829;-63
2022/08/30 00:41:02;;;;;;;;;;;;;;;;;;351313;28;856;-64
2022/08/30 00:41:12;;;;;;;;;;;;;;;;;;351253;28;1147;-64
2022/08/30 00:41:22;;;;;;;;;;;;;;;;;;350543;28;1550;-63
2022/08/30 00:41:32;;;;;;;;;;;;;;;;;;351298;28;907;-63
2022/08/30 00:41:43;;;;;;;;;;;;;;;;;;351297;28;978;-64
2022/08/30 00:41:54;;;;;;;;;;;;;;;;;;351280;28;979;-64
2022/08/30 00:42:04;;;;;;;;;;;;;;;;;;351331;28;960;-64
2022/08/30 00:42:15;;;;;;;;;;;;;;;;;;351278;28;971;-64
2022/08/30 00:42:25;;;;;;;;;;;;;;;;;;351315;28;972;-64
2022/08/30 00:42:35;;;;;;;;;;;;;;;;;;351354;28;995;-64
2022/08/30 00:42:46;;;;;;;;;;;;;;;;;;351323;28;797;-63
2022/08/30 00:42:58;;;;;;;;;;;;;;;;;;351267;28;936;-63
2022/08/30 00:43:10;;;;;;;;;;;;;;;;;;351206;28;995;-63
2022/08/30 00:43:26;;;;;;;;;;;;;;;;;;351281;28;928;-63
2022/08/30 00:43:37;;;;;;;;;;;;;;;;;;351301;28;916;-63
2022/08/30 00:43:47;;;;;;;;;;;;;;;;;;351296;28;987;-63
2022/08/30 00:43:58;;;;;;;;;;;;;;;;;;351244;28;840;-63
2022/08/30 00:44:08;;;;;;;;;;;;;;;;;;351274;28;857;-64
2022/08/30 00:44:19;;;;;;;;;;;;;;;;;;351365;28;1003;-63
2022/08/30 00:44:29;;;;;;;;;;;;;;;;;;351316;28;778;-63
2022/08/30 00:44:40;;;;;;;;;;;;;;;;;;351262;28;908;-63
2022/08/30 00:44:51;;;;;;;;;;;;;;;;;;351298;28;976;-63
2022/08/30 00:45:09;;;;;;;;;;;;;;;;;;351265;28;782;-63
2022/08/30 00:45:23;;;;;;;;;;;;;;;;;;351394;28;1031;-63
2022/08/30 00:45:34;;;;;;;;;;;;;;;;;;351451;28;1145;-63
2022/08/30 00:45:44;;;;;;;;;;;;;;;;;;351451;28;780;-64
2022/08/30 00:45:55;;;;;;;;;;;;;;;;;;351480;28;901;-63
2022/08/30 00:46:07;;;;;;;;;;;;;;;;;;351429;28;1261;-63
2022/08/30 00:46:17;;;;;;;;;;;;;;;;;;351440;28;920;-63
2022/08/30 00:46:27;;;;;;;;;;;;;;;;;;351463;28;935;-63
2022/08/30 00:46:38;;;;;;;;;;;;;;;;;;351498;28;983;-63
2022/08/30 00:46:48;;;;;;;;;;;;;;;;;;351439;28;940;-63
2022/08/30 00:46:58;;;;;;;;;;;;;;;;;;351469;28;853;-64
2022/08/30 00:47:09;;;;;;;;;;;;;;;;;;351395;28;1063;-63
2022/08/30 00:47:19;;;;;;;;;;;;;;;;;;351426;28;924;-64
2022/08/30 00:47:29;;;;;;;;;;;;;;;;;;351574;28;833;-64
2022/08/30 00:47:39;;;;;;;;;;;;;;;;;;351560;28;971;-63
2022/08/30 00:47:49;;;;;;;;;;;;;;;;;;351500;28;864;-64
2022/08/30 00:48:00;;;;;;;;;;;;;;;;;;351567;28;975;-63
2022/08/30 00:48:11;;;;;;;;;;;;;;;;;;351544;28;939;-63
2022/08/30 00:48:21;;;;;;;;;;;;;;;;;;351524;28;917;-63
2022/08/30 00:48:32;;;;;;;;;;;;;;;;;;351579;28;903;-63
2022/08/30 00:48:44;;;;;;;;;;;;;;;;;;351553;28;916;-63
2022/08/30 00:48:55;;;;;;;;;;;;;;;;;;351538;28;916;-63
2022/08/30 00:49:06;;;;;;;;;;;;;;;;;;351561;28;917;-64
2022/08/30 00:49:16;;;;;;;;;;;;;;;;;;351482;28;943;-63
2022/08/30 00:49:28;;;;;;;;;;;;;;;;;;351535;28;991;-64
2022/08/30 00:49:41;;;;;;;;;;;;;;;;;;350460;28;1329;-64
2022/08/30 00:49:53;;;;;;;;;;;;;;;;;;351336;28;1475;-63
2022/08/30 00:50:07;;;;;;;;;;;;;;;;;;351463;28;987;-63
2022/08/30 00:50:19;;;;;;;;;;;;;;;;;;351601;28;832;-63
2022/08/30 00:50:34;;;;;;;;;;;;;;;;;;351529;28;888;-63
2022/08/30 00:50:51;;;;;;;;;;;;;;;;;;351560;28;979;-63
2022/08/30 00:51:04;;;;;;;;;;;;;;;;;;351565;28;829;-64
2022/08/30 00:51:15;;;;;;;;;;;;;;;;;;351524;28;1016;-63
2022/08/30 00:51:25;;;;;;;;;;;;;;;;;;351523;28;1024;-63
2022/08/30 00:51:35;;;;;;;;;;;;;;;;;;351555;28;988;-64
2022/08/30 00:51:46;;;;;;;;;;;;;;;;;;351545;28;908;-63
2022/08/30 00:51:57;;;;;;;;;;;;;;;;;;351539;28;907;-63
2022/08/30 00:52:07;;;;;;;;;;;;;;;;;;351525;28;920;-64
2022/08/30 00:52:19;;;;;;;;;;;;;;;;;;351576;28;860;-63
2022/08/30 00:52:29;;;;;;;;;;;;;;;;;;351542;28;928;-63
2022/08/30 00:52:41;;;;;;;;;;;;;;;;;;351571;28;923;-63
2022/08/30 00:52:53;;;;;;;;;;;;;;;;;;351504;28;960;-64
2022/08/30 00:53:04;;;;;;;;;;;;;;;;;;351589;28;840;-63
2022/08/30 00:53:18;;;;;;;;;;;;;;;;;;351483;28;769;-64
2022/08/30 00:53:30;;;;;;;;;;;;;;;;;;351547;28;788;-64
2022/08/30 00:53:43;;;;;;;;;;;;;;;;;;351521;28;979;-64
2022/08/30 00:53:55;;;;;;;;;;;;;;;;;;351503;28;1400;-63
2022/08/30 00:54:06;;;;;;;;;;;;;;;;;;351452;28;1516;-63
2022/08/30 00:54:17;;;;;;;;;;;;;;;;;;351132;28;1594;-63
2022/08/30 00:54:28;;;;;;;;;;;;;;;;;;351566;28;995;-64
2022/08/30 00:54:40;;;;;;;;;;;;;;;;;;351549;28;936;-64
2022/08/30 00:54:51;;;;;;;;;;;;;;;;;;351601;28;888;-64
2022/08/30 00:55:02;;;;;;;;;;;;;;;;;;351580;28;951;-64
2022/08/30 00:55:14;;;;;;;;;;;;;;;;;;351528;28;782;-64
2022/08/30 00:55:25;;;;;;;;;;;;;;;;;;351504;28;976;-63
2022/08/30 00:55:35;;;;;;;;;;;;;;;;;;351587;28;944;-63
2022/08/30 00:55:47;;;;;;;;;;;;;;;;;;351564;28;912;-64
2022/08/30 00:55:58;;;;;;;;;;;;;;;;;;351593;28;991;-63
2022/08/30 00:56:08;;;;;;;;;;;;;;;;;;351587;28;916;-63
2022/08/30 00:56:19;;;;;;;;;;;;;;;;;;351552;28;936;-63
2022/08/30 00:56:30;;;;;;;;;;;;;;;;;;351589;28;951;-64
2022/08/30 00:56:40;;;;;;;;;;;;;;;;;;351571;28;959;-63
2022/08/30 00:56:51;;;;;;;;;;;;;;;;;;351539;28;940;-63
2022/08/30 00:57:01;;;;;;;;;;;;;;;;;;351672;28;912;-63
2022/08/30 00:57:13;;;;;;;;;;;;;;;;;;351608;28;789;-63
2022/08/30 00:57:23;;;;;;;;;;;;;;;;;;351411;28;991;-64
2022/08/30 00:57:34;;;;;;;;;;;;;;;;;;351489;28;1011;-63
2022/08/30 00:57:46;;;;;;;;;;;;;;;;;;351550;28;917;-63
2022/08/30 00:57:58;;;;;;;;;;;;;;;;;;351583;28;974;-63
2022/08/30 00:58:10;;;;;;;;;;;;;;;;;;351528;28;980;-63
2022/08/30 00:58:24;;;;;;;;;;;;;;;;;;350300;28;1480;-63
2022/08/30 00:58:36;;;;;;;;;;;;;;;;;;351189;28;1910;-64
2022/08/30 00:58:49;;;;;;;;;;;;;;;;;;351542;28;1081;-63
2022/08/30 00:59:01;;;;;;;;;;;;;;;;;;351538;28;967;-64
2022/08/30 00:59:11;;;;;;;;;;;;;;;;;;351614;28;833;-63
2022/08/30 00:59:23;;;;;;;;;;;;;;;;;;351509;28;972;-64
2022/08/30 00:59:33;;;;;;;;;;;;;;;;;;351523;28;940;-64
2022/08/30 00:59:45;;;;;;;;;;;;;;;;;;351252;28;1817;-63
2022/08/30 00:59:56;;;;;;;;;;;;;;;;;;351338;28;1324;-64
2022/08/30 01:00:07;;;;;;;;;;;;;;;;;;351448;28;886;-63
2022/08/30 01:00:17;;;;;;;;;;;;;;;;;;351601;28;888;-63
2022/08/30 01:00:27;;;;;;;;;;;;;;;;;;351487;28;1085;-64
2022/08/30 01:00:37;;;;;;;;;;;;;;;;;;351602;28;893;-63
2022/08/30 01:00:50;;;;;;;;;;;;;;;;;;351565;28;876;-63
2022/08/30 01:01:00;;;;;;;;;;;;;;;;;;351492;28;919;-63
2022/08/30 01:01:10;;;;;;;;;;;;;;;;;;351506;28;1043;-63
2022/08/30 01:01:21;;;;;;;;;;;;;;;;;;351464;28;967;-64
2022/08/30 01:01:31;;;;;;;;;;;;;;;;;;351565;28;928;-63
2022/08/30 01:01:42;;;;;;;;;;;;;;;;;;351514;28;984;-63
2022/08/30 01:01:52;;;;;;;;;;;;;;;;;;351526;28;944;-63
2022/08/30 01:02:02;;;;;;;;;;;;;;;;;;351491;28;932;-63
2022/08/30 01:02:13;;;;;;;;;;;;;;;;;;351527;28;936;-64
2022/08/30 01:02:24;;;;;;;;;;;;;;;;;;351510;28;896;-64
2022/08/30 01:02:35;;;;;;;;;;;;;;;;;;351503;28;999;-63
2022/08/30 01:02:45;;;;;;;;;;;;;;;;;;351371;28;1135;-63
2022/08/30 01:02:55;;;;;;;;;;;;;;;;;;351487;28;979;-63
2022/08/30 01:03:08;;;;;;;;;;;;;;;;;;351296;28;1015;-63
2022/08/30 01:03:18;;;;;;;;;;;;;;;;;;351498;28;857;-63
2022/08/30 01:03:28;;;;;;;;;;;;;;;;;;351389;28;987;-64
2022/08/30 01:03:39;;;;;;;;;;;;;;;;;;351437;28;979;-63
2022/08/30 01:03:50;;;;;;;;;;;;;;;;;;351365;28;904;-64
2022/08/30 01:04:01;;;;;;;;;;;;;;;;;;351450;28;944;-63
2022/08/30 01:04:13;;;;;;;;;;;;;;;;;;351434;28;829;-64
2022/08/30 01:04:24;;;;;;;;;;;;;;;;;;350277;28;1355;-63
2022/08/30 01:04:36;;;;;;;;;;;;;;;;;;350023;28;974;-64
2022/08/30 01:04:46;;;;;;;;;;;;;;;;;;350187;28;900;-63
2022/08/30 01:04:57;;;;;;;;;;;;;;;;;;350102;28;929;-63
2022/08/30 01:05:09;;;;;;;;;;;;;;;;;;350155;28;960;-63
2022/08/30 01:05:20;;;;;;;;;;;;;;;;;;350130;28;940;-64
2022/08/30 01:05:30;;;;;;;;;;;;;;;;;;350170;28;839;-63
2022/08/30 01:05:41;;;;;;;;;;;;;;;;;;350121;28;852;-64
2022/08/30 01:05:52;;;;;;;;;;;;;;;;;;350156;28;852;-63
2022/08/30 01:06:04;;;;;;;;;;;;;;;;;;350063;28;904;-63
2022/08/30 01:06:15;;;;;;;;;;;;;;;;;;350178;28;833;-63
2022/08/30 01:06:26;;;;;;;;;;;;;;;;;;350041;28;797;-63
2022/08/30 01:06:38;;;;;;;;;;;;;;;;;;350181;28;945;-63
2022/08/30 01:06:48;;;;;;;;;;;;;;;;;;350099;28;1011;-63
2022/08/30 01:06:59;;;;;;;;;;;;;;;;;;350164;28;881;-63
2022/08/30 01:07:10;;;;;;;;;;;;;;;;;;350122;28;877;-63
2022/08/30 01:07:20;;;;;;;;;;;;;;;;;;350129;28;1014;-63
2022/08/30 01:07:30;;;;;;;;;;;;;;;;;;350084;28;912;-64
2022/08/30 01:07:41;;;;;;;;;;;;;;;;;;350186;28;770;-63
2022/08/30 01:07:51;;;;;;;;;;;;;;;;;;350141;28;929;-63
2022/08/30 01:08:02;;;;;;;;;;;;;;;;;;350041;28;983;-64
2022/08/30 01:08:14;;;;;;;;;;;;;;;;;;350154;28;995;-63
2022/08/30 01:08:24;;;;;;;;;;;;;;;;;;350162;28;936;-63
2022/08/30 01:08:34;;;;;;;;;;;;;;;;;;350056;28;972;-64
2022/08/30 01:08:45;;;;;;;;;;;;;;;;;;350113;28;844;-63
2022/08/30 01:08:55;;;;;;;;;;;;;;;;;;350102;28;1015;-63
2022/08/30 01:09:07;;;;;;;;;;;;;;;;;;350139;28;948;-63
2022/08/30 01:09:17;;;;;;;;;;;;;;;;;;350095;28;925;-63
2022/08/30 01:09:28;;;;;;;;;;;;;;;;;;350116;28;975;-64
2022/08/30 01:09:39;;;;;;;;;;;;;;;;;;350137;28;936;-63
2022/08/30 01:09:49;;;;;;;;;;;;;;;;;;349530;28;1959;-63
2022/08/30 01:10:00;;;;;;;;;;;;;;;;;;351368;28;1522;-63
2022/08/30 01:10:12;;;;;;;;;;;;;;;;;;351570;28;801;-63
2022/08/30 01:10:22;;;;;;;;;;;;;;;;;;351456;28;1147;-64
2022/08/30 01:10:34;;;;;;;;;;;;;;;;;;351516;28;766;-63
2022/08/30 01:10:44;;;;;;;;;;;;;;;;;;351560;28;814;-63
2022/08/30 01:10:55;;;;;;;;;;;;;;;;;;351529;28;876;-64
2022/08/30 01:11:06;;;;;;;;;;;;;;;;;;351503;28;960;-64
2022/08/30 01:11:19;;;;;;;;;;;;;;;;;;351565;28;776;-63
2022/08/30 01:11:30;;;;;;;;;;;;;;;;;;351481;28;814;-63
2022/08/30 01:11:42;;;;;;;;;;;;;;;;;;351473;28;975;-63
2022/08/30 01:11:52;;;;;;;;;;;;;;;;;;351544;28;983;-63
2022/08/30 01:12:03;;;;;;;;;;;;;;;;;;351554;28;849;-63
2022/08/30 01:12:13;;;;;;;;;;;;;;;;;;351524;28;817;-63
2022/08/30 01:12:24;;;;;;;;;;;;;;;;;;351534;28;1074;-64
2022/08/30 01:12:35;;;;;;;;;;;;;;;;;;351506;28;967;-63
2022/08/30 01:12:46;;;;;;;;;;;;;;;;;;351459;28;920;-64
2022/08/30 01:12:56;;;;;;;;;;;;;;;;;;351519;28;913;-63
2022/08/30 01:13:06;;;;;;;;;;;;;;;;;;351557;28;940;-63
2022/08/30 01:13:17;;;;;;;;;;;;;;;;;;351558;28;836;-63
2022/08/30 01:13:27;;;;;;;;;;;;;;;;;;351531;28;916;-63
2022/08/30 01:13:37;;;;;;;;;;;;;;;;;;351463;28;948;-64
2022/08/30 01:13:49;;;;;;;;;;;;;;;;;;351487;28;1019;-63
2022/08/30 01:14:00;;;;;;;;;;;;;;;;;;351557;28;932;-63
2022/08/30 01:14:11;;;;;;;;;;;;;;;;;;351516;28;888;-63
2022/08/30 01:14:22;;;;;;;;;;;;;;;;;;351544;28;820;-63
2022/08/30 01:14:32;;;;;;;;;;;;;;;;;;351510;28;916;-63
2022/08/30 01:14:43;;;;;;;;;;;;;;;;;;351543;27;774;-64
2022/08/30 01:14:53;;;;;;;;;;;;;;;;;;351510;28;833;-63
2022/08/30 01:15:04;;;;;;;;;;;;;;;;;;351561;28;782;-63
2022/08/30 01:15:14;;;;;;;;;;;;;;;;;;351513;28;924;-64
2022/08/30 01:15:25;;;;;;;;;;;;;;;;;;351495;28;785;-63
2022/08/30 01:15:35;;;;;;;;;;;;;;;;;;351562;28;837;-63
2022/08/30 01:15:45;;;;;;;;;;;;;;;;;;351543;28;963;-63
2022/08/30 01:15:58;;;;;;;;;;;;;;;;;;351497;28;1023;-63
2022/08/30 01:16:09;;;;;;;;;;;;;;;;;;351535;28;809;-63
2022/08/30 01:16:19;;;;;;;;;;;;;;;;;;351423;28;909;-63
2022/08/30 01:16:31;;;;;;;;;;;;;;;;;;351566;28;921;-63
2022/08/30 01:16:42;;;;;;;;;;;;;;;;;;351557;28;778;-63
2022/08/30 01:16:53;;;;;;;;;;;;;;;;;;351538;28;936;-63
2022/08/30 01:17:04;;;;;;;;;;;;;;;;;;351507;28;788;-63
2022/08/30 01:17:15;;;;;;;;;;;;;;;;;;351471;28;928;-64
2022/08/30 01:17:25;;;;;;;;;;;;;;;;;;351542;28;770;-64
2022/08/30 01:17:37;;;;;;;;;;;;;;;;;;351518;28;932;-63
2022/08/30 01:17:47;;;;;;;;;;;;;;;;;;351568;28;758;-63
2022/08/30 01:17:58;;;;;;;;;;;;;;;;;;351528;28;912;-63
2022/08/30 01:18:10;;;;;;;;;;;;;;;;;;351499;28;952;-63
2022/08/30 01:18:20;;;;;;;;;;;;;;;;;;351459;28;948;-63
2022/08/30 01:18:31;;;;;;;;;;;;;;;;;;351419;28;1909;-64
2022/08/30 01:18:41;;;;;;;;;;;;;;;;;;351552;28;1031;-63
2022/08/30 01:18:54;;;;;;;;;;;;;;;;;;351510;28;849;-63